createdAt,value
2019-02-27T00:01:30.330Z,62.44
2019-02-27T00:03:57.194Z,62.17
2019-02-27T00:06:23.912Z,62.86
2019-02-27T00:08:50.661Z,63.07
2019-02-27T00:11:17.409Z,63.43
2019-02-27T00:13:44.266Z,63.38
2019-02-27T00:16:11.667Z,62.94
2019-02-27T00:18:38.617Z,63.13
2019-02-27T00:21:05.355Z,63.21
2019-02-27T00:23:33.679Z,63.20
2019-02-27T00:26:00.413Z,63.58
2019-02-27T00:28:28.032Z,63.40
2019-02-27T00:30:54.768Z,63.31
2019-02-27T00:33:25.044Z,62.94
2019-02-27T00:35:50.525Z,64.18
2019-02-27T00:38:17.261Z,64.18
2019-02-27T00:40:44.624Z,64.17
2019-02-27T00:43:11.359Z,63.98
2019-02-27T00:45:40.028Z,63.98
2019-02-27T00:48:06.704Z,64.43
2019-02-27T00:50:33.414Z,64.43
2019-02-27T00:53:00.260Z,64.03
2019-02-27T00:55:27.022Z,63.77
2019-02-27T00:57:54.502Z,63.77
2019-02-27T01:00:22.029Z,64.08
2019-02-27T01:02:52.597Z,64.99
2019-02-27T01:05:17.868Z,64.99
2019-02-27T01:07:44.647Z,64.71
2019-02-27T01:10:12.250Z,64.58
2019-02-27T01:12:39.863Z,65.03
2019-02-27T01:15:07.936Z,64.86
2019-02-27T01:17:35.424Z,66.02
2019-02-27T01:20:02.596Z,65.29
2019-02-27T01:22:29.477Z,65.29
2019-02-27T01:24:57.023Z,64.99
2019-02-27T01:27:23.757Z,65.69
2019-02-27T01:29:51.628Z,65.96
2019-02-27T01:32:18.708Z,65.96
2019-02-27T01:34:45.543Z,65.71
2019-02-27T01:37:12.268Z,65.60
2019-02-27T01:39:38.993Z,65.60
2019-02-27T01:42:05.740Z,65.90
2019-02-27T01:44:32.454Z,66.60
2019-02-27T01:47:01.936Z,66.00
2019-02-27T01:49:27.866Z,66.00
2019-02-27T01:51:54.754Z,66.23
2019-02-27T01:54:21.518Z,66.82
2019-02-27T01:56:48.950Z,66.82
2019-02-27T01:59:16.883Z,66.93
2019-02-27T02:01:45.985Z,66.54
2019-02-27T02:04:13.050Z,66.36
2019-02-27T02:06:39.779Z,66.07
2019-02-27T02:09:25.952Z,66.07
2019-02-27T02:11:52.718Z,66.18
2019-02-27T02:14:54.303Z,65.99
2019-02-27T02:17:32.376Z,65.84
2019-02-27T02:20:40.488Z,65.60
2019-02-27T02:23:21.217Z,66.01
2019-02-27T02:26:08.858Z,66.89
2019-02-27T02:29:29.877Z,66.89
2019-02-27T02:32:03.954Z,66.78
2019-02-27T02:35:07.709Z,67.30
2019-02-27T02:38:17.240Z,67.05
2019-02-27T02:41:20.547Z,67.05
2019-02-27T02:45:02.877Z,66.91
2019-02-27T02:47:44.065Z,67.07
2019-02-27T02:50:53.930Z,67.66
2019-02-27T02:54:04.674Z,68.18
2019-02-27T02:56:53.132Z,68.18
2019-02-27T02:59:46.630Z,68.00
2019-02-27T03:02:42.674Z,67.63
2019-02-27T03:06:00.121Z,67.63
2019-02-27T03:08:36.048Z,68.06
2019-02-27T03:11:54.733Z,67.70
2019-02-27T03:14:53.151Z,67.11
2019-02-27T03:17:54.866Z,67.11
2019-02-27T03:21:17.792Z,66.74
2019-02-27T03:23:59.097Z,67.43
2019-02-27T03:27:03.603Z,68.03
2019-02-27T03:30:03.232Z,67.88
2019-02-27T03:32:53.946Z,68.09
2019-02-27T03:35:59.874Z,68.09
2019-02-27T03:39:00.503Z,67.70
2019-02-27T03:42:04.102Z,68.02
2019-02-27T03:44:56.205Z,68.56
2019-02-27T03:48:06.730Z,68.73
2019-02-27T03:50:51.676Z,68.92
2019-02-27T03:53:29.371Z,68.43
2019-02-27T03:56:33.182Z,68.07
2019-02-27T03:59:46.673Z,68.48
2019-02-27T04:02:47.886Z,68.34
2019-02-27T04:05:52.621Z,68.75
2019-02-27T04:08:54.683Z,67.86
2019-02-27T04:11:24.900Z,67.86
2019-02-27T04:13:51.655Z,67.89
2019-02-27T04:16:18.411Z,68.26
2019-02-27T04:18:45.138Z,68.24
2019-02-27T04:21:11.885Z,68.00
2019-02-27T04:23:38.609Z,68.01
2019-02-27T04:26:06.575Z,68.24
2019-02-27T04:28:33.486Z,68.55
2019-02-27T04:31:00.538Z,68.42
2019-02-27T04:33:27.276Z,68.55
2019-02-27T04:35:54.005Z,68.80
2019-02-27T04:38:20.745Z,69.44
2019-02-27T04:40:47.475Z,69.40
2019-02-27T04:43:14.209Z,69.31
2019-02-27T04:45:40.961Z,69.47
2019-02-27T04:48:07.663Z,70.67
2019-02-27T04:50:35.613Z,70.67
2019-02-27T04:53:02.335Z,70.25
2019-02-27T04:55:29.369Z,69.78
2019-02-27T04:57:56.399Z,69.31
2019-02-27T05:00:26.032Z,69.72
2019-02-27T05:02:53.542Z,69.34
2019-02-27T05:05:20.833Z,68.76
2019-02-27T05:07:47.569Z,69.49
2019-02-27T05:10:14.319Z,69.21
2019-02-27T05:12:41.056Z,69.21
2019-02-27T05:15:10.686Z,69.80
2019-02-27T05:17:37.398Z,69.17
2019-02-27T05:20:04.331Z,69.17
2019-02-27T05:22:31.245Z,70.10
2019-02-27T05:24:57.939Z,70.10
2019-02-27T05:27:24.703Z,70.06
2019-02-27T05:29:51.402Z,69.98
2019-02-27T05:32:18.467Z,70.08
2019-02-27T05:34:49.538Z,69.73
2019-02-27T05:37:13.839Z,70.11
2019-02-27T05:39:40.575Z,69.42
2019-02-27T05:42:07.295Z,69.94
2019-02-27T05:44:34.339Z,69.49
2019-02-27T05:47:01.064Z,69.80
2019-02-27T05:49:27.773Z,69.70
2019-02-27T05:51:54.635Z,70.19
2019-02-27T05:54:21.343Z,69.94
2019-02-27T05:56:49.744Z,69.80
2019-02-27T05:59:18.908Z,69.24
2019-02-27T06:01:45.643Z,68.99
2019-02-27T06:04:12.782Z,69.87
2019-02-27T06:06:44.862Z,69.87
2019-02-27T06:09:10.384Z,69.95
2019-02-27T06:11:39.019Z,70.07
2019-02-27T06:14:05.769Z,69.17
2019-02-27T06:16:37.013Z,69.60
2019-02-27T06:19:03.850Z,70.13
2019-02-27T06:21:31.641Z,70.12
2019-02-27T06:23:58.388Z,70.08
2019-02-27T06:26:25.827Z,69.99
2019-02-27T06:28:52.571Z,68.96
2019-02-27T06:31:25.143Z,69.36
2019-02-27T06:33:52.019Z,69.22
2019-02-27T06:36:18.770Z,69.88
2019-02-27T06:38:45.486Z,69.81
2019-02-27T06:41:15.410Z,69.58
2019-02-27T06:43:40.889Z,69.68
2019-02-27T06:46:07.590Z,69.67
2019-02-27T06:48:43.549Z,69.56
2019-02-27T06:51:10.359Z,69.87
2019-02-27T06:54:20.817Z,70.00
2019-02-27T06:56:47.568Z,69.99
2019-02-27T06:59:14.437Z,70.35
2019-02-27T07:01:45.030Z,70.73
2019-02-27T07:04:12.051Z,70.36
2019-02-27T07:06:39.151Z,70.18
2019-02-27T07:09:11.321Z,70.18
2019-02-27T07:11:34.696Z,70.52
2019-02-27T07:14:01.487Z,70.10
2019-02-27T07:16:28.461Z,70.32
2019-02-27T07:18:55.451Z,70.31
2019-02-27T07:21:22.189Z,70.16
2019-02-27T07:23:48.927Z,69.82
2019-02-27T07:26:15.997Z,70.28
2019-02-27T07:28:45.932Z,70.13
2019-02-27T07:31:17.516Z,70.35
2019-02-27T07:33:44.409Z,69.83
2019-02-27T07:36:11.164Z,70.35
2019-02-27T07:38:37.920Z,69.99
2019-02-27T07:41:04.676Z,70.57
2019-02-27T07:43:31.652Z,69.95
2019-02-27T07:45:58.428Z,68.94
2019-02-27T07:48:26.806Z,68.94
2019-02-27T07:50:53.539Z,68.91
2019-02-27T07:53:20.266Z,68.78
2019-02-27T07:55:47.467Z,68.13
2019-02-27T07:58:14.355Z,67.74
2019-02-27T08:00:43.542Z,67.74
2019-02-27T08:03:12.959Z,68.06
2019-02-27T08:05:38.930Z,67.70
2019-02-27T08:08:05.750Z,67.78
2019-02-27T08:10:36.775Z,67.33
2019-02-27T08:13:03.108Z,66.98
2019-02-27T08:15:30.399Z,66.03
2019-02-27T08:17:58.633Z,66.03
2019-02-27T08:20:25.571Z,65.51
2019-02-27T08:22:52.510Z,65.24
2019-02-27T08:25:19.404Z,65.24
2019-02-27T08:27:46.168Z,64.76
2019-02-27T08:30:15.436Z,64.05
2019-02-27T08:32:42.186Z,64.87
2019-02-27T08:35:08.987Z,64.59
2019-02-27T08:37:36.418Z,64.59
2019-02-27T08:40:03.858Z,63.40
2019-02-27T08:42:30.618Z,62.79
2019-02-27T08:44:57.357Z,62.59
2019-02-27T08:47:24.122Z,62.59
2019-02-27T08:49:51.006Z,62.62
2019-02-27T08:52:17.781Z,61.86
2019-02-27T08:54:47.416Z,61.06
2019-02-27T08:57:14.448Z,61.06
2019-02-27T08:59:41.446Z,60.94
2019-02-27T09:02:08.166Z,61.22
2019-02-27T09:04:35.112Z,60.59
2019-02-27T09:07:03.420Z,60.16
2019-02-27T09:09:30.948Z,59.79
2019-02-27T09:11:58.147Z,59.65
2019-02-27T09:14:24.994Z,59.30
2019-02-27T09:16:51.987Z,58.56
2019-02-27T09:19:20.607Z,57.75
2019-02-27T09:21:47.461Z,57.75
2019-02-27T09:24:14.272Z,57.04
2019-02-27T09:26:42.353Z,57.20
2019-02-27T09:29:09.778Z,56.56
2019-02-27T09:31:37.675Z,55.80
2019-02-27T09:34:05.494Z,55.59
2019-02-27T09:36:34.230Z,54.64
2019-02-27T09:39:03.678Z,54.97
2019-02-27T09:41:32.304Z,54.22
2019-02-27T09:44:01.330Z,54.19
2019-02-27T09:46:27.788Z,53.53
2019-02-27T09:48:56.306Z,53.51
2019-02-27T09:51:23.071Z,53.48
2019-02-27T09:53:49.968Z,53.17
2019-02-27T09:56:17.126Z,53.02
2019-02-27T09:58:45.641Z,52.34
2019-02-27T10:01:16.234Z,52.03
2019-02-27T10:03:43.146Z,51.74
2019-02-27T10:06:09.868Z,51.16
2019-02-27T10:08:36.988Z,51.34
2019-02-27T10:11:03.914Z,50.50
2019-02-27T10:13:31.088Z,50.36
2019-02-27T10:16:01.348Z,50.47
2019-02-27T10:18:26.832Z,49.60
2019-02-27T10:20:54.932Z,49.77
2019-02-27T10:23:21.665Z,49.42
2019-02-27T10:25:49.913Z,49.38
2019-02-27T10:28:16.999Z,48.77
2019-02-27T10:30:44.190Z,48.77
2019-02-27T10:33:11.924Z,46.90
2019-02-27T10:35:38.888Z,47.63
2019-02-27T10:38:08.487Z,47.73
2019-02-27T10:40:36.014Z,47.31
2019-02-27T10:43:02.788Z,46.97
2019-02-27T10:45:29.693Z,46.67
2019-02-27T10:47:56.667Z,46.38
2019-02-27T10:50:24.754Z,45.51
2019-02-27T10:52:53.226Z,45.60
2019-02-27T10:55:23.333Z,45.39
2019-02-27T10:57:50.105Z,44.99
2019-02-27T11:00:29.092Z,45.26
2019-02-27T11:02:55.838Z,45.33
2019-02-27T11:05:22.906Z,44.80
2019-02-27T11:07:52.966Z,45.01
2019-02-27T11:10:19.000Z,45.17
2019-02-27T11:12:49.067Z,44.22
2019-02-27T11:15:15.982Z,44.15
2019-02-27T11:17:43.385Z,44.44
2019-02-27T11:20:12.626Z,44.09
2019-02-27T11:22:41.441Z,43.99
2019-02-27T11:25:11.431Z,43.86
2019-02-27T11:27:40.235Z,43.02
2019-02-27T11:30:13.123Z,43.04
2019-02-27T11:32:39.855Z,42.85
2019-02-27T11:35:06.813Z,42.42
2019-02-27T11:37:33.740Z,42.14
2019-02-27T11:40:01.118Z,41.79
2019-02-27T11:42:28.985Z,40.53
2019-02-27T11:44:57.175Z,40.37
2019-02-27T11:47:24.151Z,39.35
2019-02-27T11:49:50.925Z,39.86
2019-02-27T11:52:17.678Z,39.64
2019-02-27T11:54:44.425Z,37.30
2019-02-27T11:57:11.371Z,37.73
2019-02-27T11:59:38.157Z,37.88
2019-02-27T12:02:05.279Z,37.59
2019-02-27T12:04:32.029Z,37.54
2019-02-27T12:06:59.089Z,37.42
2019-02-27T12:09:25.826Z,36.86
2019-02-27T12:11:53.059Z,36.22
2019-02-27T12:14:19.735Z,34.75
2019-02-27T12:16:48.604Z,34.20
2019-02-27T12:19:18.077Z,34.43
2019-02-27T12:21:45.096Z,34.25
2019-02-27T12:24:11.949Z,33.24
2019-02-27T12:26:38.641Z,33.04
2019-02-27T12:29:05.371Z,31.54
2019-02-27T12:31:32.109Z,31.73
2019-02-27T12:34:02.458Z,31.74
2019-02-27T12:36:27.595Z,32.35
2019-02-27T12:38:58.199Z,31.53
2019-02-27T12:41:25.017Z,30.59
2019-02-27T12:43:52.731Z,30.09
2019-02-27T12:46:20.361Z,29.79
2019-02-27T12:48:47.537Z,30.19
2019-02-27T12:51:14.414Z,29.91
2019-02-27T12:53:42.765Z,30.06
2019-02-27T12:56:11.941Z,29.14
2019-02-27T12:58:38.717Z,28.14
2019-02-27T13:01:05.491Z,27.97
2019-02-27T13:03:32.437Z,28.28
2019-02-27T13:06:01.001Z,27.90
2019-02-27T13:08:28.144Z,28.74
2019-02-27T13:10:57.601Z,28.08
2019-02-27T13:13:25.884Z,27.80
2019-02-27T13:15:53.254Z,28.07
2019-02-27T13:18:20.164Z,27.90
2019-02-27T13:20:46.992Z,27.81
2019-02-27T13:23:13.979Z,27.57
2019-02-27T13:25:40.747Z,27.41
2019-02-27T13:28:07.698Z,27.36
2019-02-27T13:30:34.641Z,26.77
2019-02-27T13:33:02.225Z,27.00
2019-02-27T13:35:29.317Z,26.13
2019-02-27T13:37:58.593Z,26.52
2019-02-27T13:40:25.332Z,25.88
2019-02-27T13:42:53.344Z,26.30
2019-02-27T13:45:22.065Z,26.79
2019-02-27T13:47:49.416Z,26.11
2019-02-27T13:50:16.840Z,26.03
2019-02-27T13:52:44.505Z,25.01
2019-02-27T13:55:13.544Z,25.78
2019-02-27T13:57:40.451Z,25.20
2019-02-27T14:00:13.265Z,25.34
2019-02-27T14:02:40.566Z,25.14
2019-02-27T14:05:07.740Z,24.88
2019-02-27T14:07:34.573Z,24.63
2019-02-27T14:10:01.301Z,24.40
2019-02-27T14:12:29.987Z,24.33
2019-02-27T14:14:57.082Z,24.51
2019-02-27T14:17:23.812Z,24.90
2019-02-27T14:19:50.552Z,24.67
2019-02-27T14:22:17.282Z,24.69
2019-02-27T14:24:44.337Z,24.12
2019-02-27T14:27:11.985Z,23.89
2019-02-27T14:29:41.294Z,23.10
2019-02-27T14:32:08.295Z,23.82
2019-02-27T14:34:35.026Z,24.80
2019-02-27T14:37:01.929Z,24.75
2019-02-27T14:39:29.705Z,24.83
2019-02-27T14:41:57.201Z,24.33
2019-02-27T14:44:23.965Z,23.65
2019-02-27T14:46:50.865Z,23.39
2019-02-27T14:49:17.596Z,24.30
2019-02-27T14:51:44.316Z,23.67
2019-02-27T14:54:11.043Z,23.61
2019-02-27T14:56:37.935Z,23.74
2019-02-27T14:59:04.827Z,23.82
2019-02-27T15:01:32.025Z,25.72
2019-02-27T15:04:01.509Z,26.87
2019-02-27T15:06:28.571Z,27.31
2019-02-27T15:08:58.150Z,27.73
2019-02-27T15:11:23.907Z,27.83
2019-02-27T15:13:50.935Z,28.15
2019-02-27T15:16:17.778Z,28.22
2019-02-27T15:18:46.165Z,28.48
2019-02-27T15:21:13.731Z,28.91
2019-02-27T15:23:40.647Z,29.21
2019-02-27T15:26:07.510Z,29.05
2019-02-27T15:28:34.344Z,29.54
2019-02-27T15:31:01.042Z,29.80
2019-02-27T15:33:32.229Z,30.06
2019-02-27T15:35:58.991Z,30.45
2019-02-27T15:38:26.848Z,30.44
2019-02-27T15:40:53.780Z,30.79
2019-02-27T15:43:20.488Z,31.14
2019-02-27T15:45:48.849Z,31.37
2019-02-27T15:48:17.914Z,31.53
2019-02-27T15:50:44.707Z,31.48
2019-02-27T15:53:15.186Z,31.68
2019-02-27T15:55:42.783Z,31.78
2019-02-27T15:58:10.740Z,31.98
2019-02-27T16:00:37.618Z,32.34
2019-02-27T16:03:04.322Z,32.37
2019-02-27T16:05:31.784Z,32.52
2019-02-27T16:07:58.571Z,32.58
2019-02-27T16:10:25.400Z,32.63
2019-02-27T16:12:52.141Z,32.65
2019-02-27T16:15:18.874Z,32.77
2019-02-27T16:17:45.706Z,32.78
2019-02-27T16:20:16.155Z,32.85
2019-02-27T16:22:42.452Z,32.98
2019-02-27T16:25:10.855Z,33.09
2019-02-27T16:27:38.760Z,33.14
2019-02-27T16:30:07.814Z,33.16
2019-02-27T16:32:34.569Z,33.06
2019-02-27T16:35:04.328Z,33.13
2019-02-27T16:37:31.486Z,33.01
2019-02-27T16:39:58.583Z,32.94
2019-02-27T16:42:25.689Z,33.15
2019-02-27T16:44:54.369Z,33.22
2019-02-27T16:47:23.738Z,33.42
2019-02-27T16:49:54.239Z,33.56
2019-02-27T16:52:21.218Z,33.59
2019-02-27T16:54:50.623Z,33.49
2019-02-27T16:57:20.525Z,33.75
2019-02-27T16:59:49.124Z,33.90
2019-02-27T17:02:16.251Z,33.95
2019-02-27T17:04:42.975Z,34.10
2019-02-27T17:07:09.911Z,33.97
2019-02-27T17:09:36.903Z,34.07
2019-02-27T17:12:06.917Z,34.19
2019-02-27T17:14:32.391Z,34.37
2019-02-27T17:16:59.676Z,34.62
2019-02-27T17:19:26.886Z,34.70
2019-02-27T17:21:58.416Z,34.88
2019-02-27T17:24:22.541Z,35.11
2019-02-27T17:26:49.727Z,35.32
2019-02-27T17:29:16.679Z,35.69
2019-02-27T17:31:49.440Z,35.73
2019-02-27T17:34:13.763Z,35.70
2019-02-27T17:36:41.132Z,35.80
2019-02-27T17:39:08.395Z,35.86
2019-02-27T17:41:35.229Z,35.79
2019-02-27T17:44:05.219Z,35.73
2019-02-27T17:46:30.959Z,35.74
2019-02-27T17:48:58.277Z,35.82
2019-02-27T17:51:25.107Z,36.00
2019-02-27T17:53:51.868Z,35.91
2019-02-27T17:56:19.108Z,35.87
2019-02-27T17:58:46.186Z,36.09
2019-02-27T18:01:15.832Z,36.23
2019-02-27T18:03:42.535Z,37.17
2019-02-27T18:06:09.600Z,38.31
2019-02-27T18:08:38.918Z,38.68
2019-02-27T18:11:05.620Z,39.06
2019-02-27T18:13:35.371Z,39.70
2019-02-27T18:16:01.091Z,40.07
2019-02-27T18:18:28.012Z,40.57
2019-02-27T18:20:59.466Z,40.97
2019-02-27T18:23:26.416Z,41.62
2019-02-27T18:25:53.210Z,41.70
2019-02-27T18:28:19.965Z,42.06
2019-02-27T18:30:46.748Z,42.32
2019-02-27T18:33:15.540Z,42.53
2019-02-27T18:35:42.158Z,42.79
2019-02-27T18:38:08.956Z,43.31
2019-02-27T18:40:36.665Z,43.32
2019-02-27T18:43:03.415Z,43.40
2019-02-27T18:45:32.048Z,43.79
2019-02-27T18:47:59.019Z,44.14
2019-02-27T18:50:27.199Z,44.33
2019-02-27T18:52:54.210Z,44.33
2019-02-27T18:55:20.940Z,45.05
2019-02-27T18:57:47.772Z,45.36
2019-02-27T19:00:19.351Z,45.57
2019-02-27T19:02:46.142Z,45.92
2019-02-27T19:05:13.140Z,45.57
2019-02-27T19:07:40.015Z,45.61
2019-02-27T19:10:07.624Z,46.03
2019-02-27T19:12:34.508Z,46.20
2019-02-27T19:15:01.370Z,46.71
2019-02-27T19:17:31.546Z,47.25
2019-02-27T19:19:56.710Z,47.39
2019-02-27T19:22:23.452Z,47.64
2019-02-27T19:24:50.161Z,47.79
2019-02-27T19:27:18.389Z,48.03
2019-02-27T19:29:45.665Z,47.80
2019-02-27T19:32:16.242Z,48.03
2019-02-27T19:34:44.719Z,47.83
2019-02-27T19:37:11.973Z,48.05
2019-02-27T19:39:38.672Z,48.54
2019-02-27T19:42:05.420Z,48.52
2019-02-27T19:44:32.244Z,48.66
2019-02-27T19:46:59.110Z,48.34
2019-02-27T19:49:25.945Z,48.31
2019-02-27T19:51:54.778Z,48.46
2019-02-27T19:54:21.350Z,48.70
2019-02-27T19:56:50.546Z,48.63
2019-02-27T19:59:17.282Z,48.79
2019-02-27T20:01:48.404Z,49.03
2019-02-27T20:04:12.843Z,49.74
2019-02-27T20:06:39.556Z,49.72
2019-02-27T20:09:07.962Z,49.99
2019-02-27T20:11:40.200Z,50.42
2019-02-27T20:14:09.178Z,50.33
2019-02-27T20:16:35.909Z,49.70
2019-02-27T20:19:02.615Z,49.45
2019-02-27T20:21:31.328Z,49.55
2019-02-27T20:24:01.445Z,49.52
2019-02-27T20:26:26.865Z,49.59
2019-02-27T20:28:53.602Z,49.72
2019-02-27T20:31:23.204Z,49.75
2019-02-27T20:33:49.932Z,50.22
2019-02-27T20:36:17.088Z,50.64
2019-02-27T20:38:43.896Z,50.56
2019-02-27T20:41:10.716Z,50.67
2019-02-27T20:43:37.440Z,50.90
2019-02-27T20:46:04.272Z,50.96
2019-02-27T20:48:32.248Z,51.31
2019-02-27T20:51:02.727Z,51.94
2019-02-27T20:53:29.177Z,52.19
2019-02-27T20:55:56.199Z,51.85
2019-02-27T20:58:26.310Z,51.97
2019-02-27T21:00:53.060Z,51.98
2019-02-27T21:03:19.857Z,52.26
2019-02-27T21:05:48.476Z,52.06
2019-02-27T21:08:15.342Z,52.19
2019-02-27T21:10:42.107Z,52.06
2019-02-27T21:13:09.126Z,52.02
2019-02-27T21:15:35.847Z,51.67
2019-02-27T21:18:02.561Z,51.64
2019-02-27T21:20:29.416Z,51.94
2019-02-27T21:22:56.288Z,52.09
2019-02-27T21:25:23.009Z,52.18
2019-02-27T21:27:49.750Z,52.41
2019-02-27T21:30:18.746Z,52.47
2019-02-27T21:32:45.624Z,53.04
2019-02-27T21:35:12.344Z,53.02
2019-02-27T21:37:44.596Z,53.39
2019-02-27T21:40:09.242Z,53.69
2019-02-27T21:42:35.968Z,53.95
2019-02-27T21:45:09.681Z,53.94
2019-02-27T21:47:38.361Z,53.95
2019-02-27T21:50:07.140Z,53.69
2019-02-27T21:52:34.200Z,53.75
2019-02-27T21:55:00.959Z,53.72
2019-02-27T21:57:27.676Z,53.71
2019-02-27T21:59:54.443Z,53.68
2019-02-27T22:02:21.376Z,53.79
2019-02-27T22:04:48.360Z,54.26
2019-02-27T22:07:15.081Z,54.78
2019-02-27T22:09:44.608Z,54.97
2019-02-27T22:12:11.100Z,55.15
2019-02-27T22:14:38.029Z,55.41
2019-02-27T22:17:05.831Z,55.50
2019-02-27T22:19:34.893Z,55.26
2019-02-27T22:22:01.822Z,54.68
2019-02-27T22:24:28.669Z,54.81
2019-02-27T22:26:55.399Z,54.53
2019-02-27T22:29:25.143Z,54.22
2019-02-27T22:31:51.856Z,54.25
2019-02-27T22:34:18.626Z,54.39
2019-02-27T22:36:45.338Z,54.80
2019-02-27T22:39:12.033Z,55.05
2019-02-27T22:41:40.677Z,55.12
2019-02-27T22:44:07.530Z,55.33
2019-02-27T22:46:34.649Z,56.00
2019-02-27T22:49:01.403Z,56.32
2019-02-27T22:51:28.303Z,56.76
2019-02-27T22:53:55.211Z,57.18
2019-02-27T22:56:21.983Z,57.19
2019-02-27T22:58:51.426Z,56.93
2019-02-27T23:01:31.334Z,57.06
2019-02-27T23:04:08.233Z,57.24
2019-02-27T23:06:38.020Z,56.87
2019-02-27T23:09:09.165Z,56.92
2019-02-27T23:11:36.785Z,57.16
2019-02-27T23:14:05.741Z,57.09
2019-02-27T23:16:32.897Z,56.93
2019-02-27T23:18:59.642Z,56.86
2019-02-27T23:21:26.785Z,57.19
2019-02-27T23:23:54.467Z,57.78
2019-02-27T23:26:21.617Z,57.62
2019-02-27T23:28:48.347Z,57.86
2019-02-27T23:31:22.217Z,57.62
2019-02-27T23:33:45.692Z,57.03
2019-02-27T23:36:12.499Z,56.81
2019-02-27T23:38:39.393Z,57.08
2019-02-27T23:41:06.102Z,57.29
2019-02-27T23:43:34.882Z,57.64
2019-02-27T23:46:02.215Z,58.00
2019-02-27T23:48:29.276Z,58.63
2019-02-27T23:50:56.069Z,58.15
2019-02-27T23:53:24.418Z,58.00
2019-02-27T23:55:51.641Z,57.65
2019-02-27T23:58:18.427Z,57.76
